LDRO weather

Otočac Airport
Otočac, Lika-Senj County, Croatia

Public forecast

Using degrees Celsius for public forecast. Weather courtesy of forecast.io.

Closest aviation weather report (METAR) to Otočac Airport

Closest report is Rijeka Airport, 37.6 nm (69.7 km) NW. Retrieved 2020/06/01 01:30 UTC (19 minutes ago):

LDRI 010130Z 03004KT 310V180 9999 SCT047 16/06 Q1017

Closest aviation forecast (TAF) to Otočac Airport

Closest forecast is Rijeka Airport, 37.6 nm (69.7 km) NW. Retrieved 2020-06-01 00:00 UTC (2 hours ago):

TAF LDRI 312325Z 0100/0200 04010KT 9999 BKN045 TX24/0114Z TN14/0104Z TEMPO 0100/0118 VRB10KT PROB30 TEMPO 0100/0106 32008KT